Oakland Park, Florida
Current Conditions -  °F | °C
As of 6:53 AM on Sunday 21 Dec 2014 (Local Time) from KLEE Reporting Station
Haze Haze  
Wind Chill: 61°   Ceiling: 200
Heat Index: 61°   Visibility: 1.2mi
Dew Point: 60°   Wind: 5mph
Humidity: 97%   Direction: 80°E
Pressure: 30.07"   Gusts: NA
Location:  28.8°N, 81.68°W
Report Text: KLEE 211153Z 08004KT 1 1/4SM BR OVC002 16/16 A3007 RMK AO2 SLP183 T01610156 10167 20161 58001
Loading
Personal Weather Stations






























Interactive Weather Map New forecast layout! Learn more

10-Day Weather Forecast

Advertisements
Track Severe Weather on mobile